createdAt,value
2023-04-07T00:00:19.688Z,371.63
2023-04-07T00:05:26.944Z,372.32
2023-04-07T00:10:34.152Z,372.61
2023-04-07T00:15:41.348Z,372.42
2023-04-07T00:20:48.493Z,372.68
2023-04-07T00:25:55.775Z,373.02
2023-04-07T00:31:03.022Z,373.53
2023-04-07T00:36:18.768Z,373.68
2023-04-07T00:41:26.169Z,374.32
2023-04-07T00:46:42.696Z,374.88
2023-04-07T00:51:58.885Z,374.89
2023-04-07T00:57:17.486Z,375.30
2023-04-07T01:02:25.434Z,376.51
2023-04-07T01:07:32.852Z,377.12
2023-04-07T01:12:40.735Z,378.02
2023-04-07T01:18:00.698Z,377.81
2023-04-07T01:23:48.253Z,378.75
2023-04-07T01:29:33.825Z,379.37
2023-04-07T01:35:21.398Z,378.94
2023-04-07T01:41:03.896Z,379.36
2023-04-07T01:46:51.332Z,379.87
2023-04-07T01:52:33.538Z,380.39
2023-04-07T01:58:16.113Z,381.08
2023-04-07T02:03:23.968Z,381.67
2023-04-07T02:08:32.275Z,381.87
2023-04-07T02:13:38.231Z,382.57
2023-04-07T02:18:45.513Z,383.01
2023-04-07T02:23:52.735Z,383.67
2023-04-07T02:28:59.994Z,383.96
2023-04-07T02:34:07.286Z,384.67
2023-04-07T02:39:14.465Z,385.03
2023-04-07T02:44:21.699Z,385.62
2023-04-07T02:49:28.932Z,385.73
2023-04-07T02:54:36.186Z,386.09
2023-04-07T02:59:43.375Z,386.65
2023-04-07T03:04:50.599Z,387.49
2023-04-07T03:09:57.749Z,388.51
2023-04-07T03:15:04.998Z,388.44
2023-04-07T03:20:12.248Z,389.88
2023-04-07T03:25:19.398Z,389.51
2023-04-07T03:30:26.606Z,389.14
2023-04-07T03:35:33.788Z,390.26
2023-04-07T03:40:40.950Z,390.70
2023-04-07T03:45:48.145Z,390.60
2023-04-07T03:50:55.348Z,390.59
2023-04-07T03:56:02.517Z,390.40
2023-04-07T04:01:09.708Z,390.20
2023-04-07T04:06:16.933Z,390.63
2023-04-07T04:11:24.166Z,391.36
2023-04-07T04:16:31.412Z,393.00
2023-04-07T04:21:38.565Z,394.60
2023-04-07T04:26:45.724Z,393.46
2023-04-07T04:31:52.937Z,393.96
2023-04-07T04:37:00.283Z,393.52
2023-04-07T04:42:07.725Z,393.31
2023-04-07T04:47:15.213Z,393.86
2023-04-07T04:52:22.416Z,393.17
2023-04-07T04:57:30.035Z,393.29
2023-04-07T05:02:37.870Z,393.57
2023-04-07T05:07:45.298Z,393.89
2023-04-07T05:12:52.706Z,393.97
2023-04-07T05:18:00.283Z,394.05
2023-04-07T05:23:07.769Z,394.28
2023-04-07T05:28:15.389Z,394.43
2023-04-07T05:33:23.071Z,395.63
2023-04-07T05:38:30.465Z,395.23
2023-04-07T05:43:37.863Z,395.70
2023-04-07T05:48:45.271Z,397.04
2023-04-07T05:54:32.854Z,397.24
2023-04-07T05:59:46.695Z,396.90
2023-04-07T06:04:54.333Z,396.71
2023-04-07T06:10:06.800Z,396.49
2023-04-07T06:15:49.354Z,396.26
2023-04-07T06:21:07.002Z,396.38
2023-04-07T06:26:54.272Z,397.02
2023-04-07T06:33:04.726Z,397.11
2023-04-07T06:37:14.595Z,396.98
2023-04-07T06:42:22.264Z,397.29
2023-04-07T06:47:29.853Z,396.53
2023-04-07T06:52:37.257Z,397.01
2023-04-07T06:57:44.994Z,396.92
2023-04-07T07:02:52.614Z,397.83
2023-04-07T07:08:00.122Z,398.15
2023-04-07T07:13:13.778Z,398.44
2023-04-07T07:18:21.610Z,398.51
2023-04-07T07:23:28.986Z,398.68
2023-04-07T07:28:36.623Z,398.57
2023-04-07T07:33:44.453Z,398.48
2023-04-07T07:39:06.866Z,398.52
2023-04-07T07:44:36.025Z,399.13
2023-04-07T07:49:43.285Z,399.12
2023-04-07T07:54:50.539Z,399.18
2023-04-07T07:59:57.766Z,398.80
2023-04-07T08:05:05.003Z,398.98
2023-04-07T08:10:12.169Z,398.95
2023-04-07T08:15:19.368Z,399.36
2023-04-07T08:20:26.519Z,399.60
2023-04-07T08:25:33.716Z,399.51
2023-04-07T08:30:40.924Z,400.15
2023-04-07T08:35:48.153Z,400.38
2023-04-07T08:40:55.289Z,400.77
2023-04-07T08:46:02.515Z,400.59
2023-04-07T08:51:09.672Z,400.30
2023-04-07T08:56:16.882Z,400.48
2023-04-07T09:01:24.209Z,400.96
2023-04-07T09:06:31.300Z,401.02
2023-04-07T09:11:38.603Z,401.11
2023-04-07T09:16:45.846Z,400.95
2023-04-07T09:21:52.951Z,400.78
2023-04-07T09:27:00.148Z,400.69
2023-04-07T09:32:07.432Z,400.84
2023-04-07T09:37:14.635Z,401.02
2023-04-07T09:42:21.812Z,401.23
2023-04-07T09:47:29.057Z,401.09
2023-04-07T09:52:36.183Z,401.49
2023-04-07T09:57:43.363Z,401.89
2023-04-07T10:02:50.588Z,402.05
2023-04-07T10:07:57.742Z,402.68
2023-04-07T10:13:04.909Z,402.22
2023-04-07T10:18:12.124Z,402.41
2023-04-07T10:23:19.290Z,402.56
2023-04-07T10:28:26.456Z,402.63
2023-04-07T10:33:33.785Z,402.76
2023-04-07T10:38:40.998Z,402.02
2023-04-07T10:43:48.347Z,402.16
2023-04-07T10:48:55.445Z,402.08
2023-04-07T10:54:02.702Z,401.69
2023-04-07T10:59:09.868Z,401.59
2023-04-07T11:04:17.141Z,401.50
2023-04-07T11:09:24.258Z,401.84
2023-04-07T11:14:31.449Z,402.06
2023-04-07T11:19:38.777Z,401.57
2023-04-07T11:24:46.063Z,401.40
2023-04-07T11:29:53.464Z,401.08
2023-04-07T11:35:00.695Z,401.61
2023-04-07T11:40:07.874Z,401.31
2023-04-07T11:45:15.306Z,400.99
2023-04-07T11:50:22.676Z,400.85
2023-04-07T11:55:29.816Z,400.69
2023-04-07T12:00:37.001Z,400.43
2023-04-07T12:05:44.212Z,400.53
2023-04-07T12:10:51.410Z,400.61
2023-04-07T12:15:58.714Z,400.28
2023-04-07T12:21:05.997Z,400.03
2023-04-07T12:26:13.330Z,400.48
2023-04-07T12:31:21.141Z,399.67
2023-04-07T12:36:28.336Z,399.99
2023-04-07T12:41:35.619Z,400.13
2023-04-07T12:46:42.894Z,399.97
2023-04-07T12:51:50.228Z,400.53
2023-04-07T12:56:57.414Z,400.84
2023-04-07T13:02:04.937Z,400.53
2023-04-07T13:07:11.864Z,400.75
2023-04-07T13:12:19.069Z,400.45
2023-04-07T13:17:26.275Z,400.50
2023-04-07T13:22:35.737Z,400.18
2023-04-07T13:27:40.658Z,400.26
2023-04-07T13:32:47.844Z,400.41
2023-04-07T13:37:55.062Z,400.15
2023-04-07T13:43:02.222Z,400.42
2023-04-07T13:48:09.430Z,400.36
2023-04-07T13:53:18.850Z,399.82
2023-04-07T13:58:23.868Z,399.87
2023-04-07T14:03:31.198Z,399.72
2023-04-07T14:08:38.277Z,398.30
2023-04-07T14:13:45.447Z,398.62
2023-04-07T14:18:52.631Z,398.46
2023-04-07T14:23:59.924Z,397.81
2023-04-07T14:29:07.077Z,397.71
2023-04-07T14:34:14.346Z,397.15
2023-04-07T14:39:21.563Z,397.24
2023-04-07T14:44:28.734Z,396.76
2023-04-07T14:49:35.922Z,396.97
2023-04-07T14:54:43.127Z,396.70
2023-04-07T14:59:50.316Z,396.67
2023-04-07T15:04:57.582Z,396.97
2023-04-07T15:10:04.698Z,395.87
2023-04-07T15:15:11.855Z,395.94
2023-04-07T15:20:19.014Z,395.69
2023-04-07T15:25:26.231Z,395.23
2023-04-07T15:30:35.278Z,394.11
2023-04-07T15:35:40.626Z,393.55
2023-04-07T15:40:47.896Z,392.63
2023-04-07T15:45:55.075Z,392.16
2023-04-07T15:51:02.449Z,391.15
2023-04-07T15:56:10.289Z,391.47
2023-04-07T16:01:16.851Z,391.48
2023-04-07T16:06:24.210Z,391.08
2023-04-07T16:11:31.517Z,390.42
2023-04-07T16:16:39.035Z,390.02
2023-04-07T16:21:46.070Z,389.64
2023-04-07T16:26:53.386Z,389.62
2023-04-07T16:32:00.686Z,389.05
2023-04-07T16:37:07.937Z,388.36
2023-04-07T16:42:15.135Z,387.50
2023-04-07T16:47:22.313Z,387.38
2023-04-07T16:52:29.476Z,386.87
2023-04-07T16:57:36.787Z,386.06
2023-04-07T17:02:44.135Z,385.31
2023-04-07T17:07:51.183Z,384.74
2023-04-07T17:12:58.642Z,384.03
2023-04-07T17:18:05.852Z,383.25
2023-04-07T17:23:12.983Z,383.02
2023-04-07T17:28:20.191Z,382.43
2023-04-07T17:33:28.498Z,382.19
2023-04-07T17:38:34.558Z,381.76
2023-04-07T17:43:41.843Z,380.89
2023-04-07T17:48:49.095Z,380.38
2023-04-07T17:53:56.331Z,379.17
2023-04-07T17:59:03.591Z,378.48
2023-04-07T18:04:10.907Z,377.61
2023-04-07T18:09:18.027Z,377.09
2023-04-07T18:14:25.347Z,376.38
2023-04-07T18:19:32.747Z,375.70
2023-04-07T18:24:40.026Z,374.86
2023-04-07T18:29:47.348Z,374.36
2023-04-07T18:34:54.562Z,373.40
2023-04-07T18:40:02.058Z,372.84
2023-04-07T18:45:09.395Z,372.16
2023-04-07T18:50:16.558Z,372.17
2023-04-07T18:55:23.843Z,371.90
2023-04-07T19:00:31.152Z,370.83
2023-04-07T19:05:38.759Z,370.62
2023-04-07T19:10:45.659Z,369.93
2023-04-07T19:15:53.106Z,369.73
2023-04-07T19:21:00.431Z,369.55
2023-04-07T19:26:07.738Z,369.06
2023-04-07T19:31:15.049Z,369.29
2023-04-07T19:36:22.217Z,368.83
2023-04-07T19:41:29.473Z,368.02
2023-04-07T19:46:36.687Z,367.73
2023-04-07T19:51:43.853Z,367.65
2023-04-07T19:56:51.038Z,367.25
2023-04-07T20:01:58.374Z,367.23
2023-04-07T20:07:05.540Z,366.43
2023-04-07T20:12:12.818Z,366.45
2023-04-07T20:17:20.038Z,366.24
2023-04-07T20:22:27.196Z,366.42
2023-04-07T20:27:34.465Z,366.17
2023-04-07T20:32:41.761Z,365.55
2023-04-07T20:37:48.879Z,365.12
2023-04-07T20:42:56.103Z,365.07
2023-04-07T20:48:03.436Z,364.99
2023-04-07T20:53:10.491Z,364.71
2023-04-07T20:58:17.767Z,364.27
2023-04-07T21:03:25.250Z,363.83
2023-04-07T21:08:32.136Z,363.50
2023-04-07T21:13:39.335Z,363.15
2023-04-07T21:18:46.737Z,363.18
2023-04-07T21:23:53.708Z,362.36
2023-04-07T21:29:00.910Z,362.50
2023-04-07T21:34:08.201Z,363.06
2023-04-07T21:39:15.468Z,362.92
2023-04-07T21:44:22.750Z,362.87
2023-04-07T21:49:30.005Z,362.67
2023-04-07T21:54:37.335Z,363.22
2023-04-07T21:59:44.627Z,363.10
2023-04-07T22:04:52.001Z,363.06
2023-04-07T22:09:59.077Z,363.06
2023-04-07T22:15:06.363Z,362.90
2023-04-07T22:20:13.679Z,362.30
2023-04-07T22:25:20.922Z,362.34
2023-04-07T22:30:28.207Z,362.75
2023-04-07T22:35:35.537Z,362.41
2023-04-07T22:40:42.793Z,362.58
2023-04-07T22:45:50.071Z,362.55
2023-04-07T22:50:57.283Z,362.69
2023-04-07T22:56:04.431Z,362.45
2023-04-07T23:01:11.681Z,361.84
2023-04-07T23:06:18.854Z,361.94
2023-04-07T23:11:26.084Z,361.69
2023-04-07T23:16:33.312Z,362.16
2023-04-07T23:21:40.605Z,361.71
2023-04-07T23:26:47.842Z,361.51
2023-04-07T23:31:55.066Z,361.94
2023-04-07T23:37:02.251Z,361.27
2023-04-07T23:42:44.671Z,361.12
2023-04-07T23:48:27.114Z,360.52
2023-04-07T23:54:09.532Z,361.12
2023-04-07T23:59:55.860Z,361.13
